sensor_id;sensor_type;location;lat;lon;timestamp;temperature;humidity
27164;DHT22;14685;50.618;7.024;2023-07-09T00:01:55;25.80;99.90
27164;DHT22;14685;50.618;7.024;2023-07-09T00:04:22;25.80;99.90
27164;DHT22;14685;50.618;7.024;2023-07-09T00:06:50;25.80;99.90
27164;DHT22;14685;50.618;7.024;2023-07-09T00:09:20;25.70;99.90
27164;DHT22;14685;50.618;7.024;2023-07-09T00:11:48;25.80;99.90
27164;DHT22;14685;50.618;7.024;2023-07-09T00:14:16;25.80;99.90
27164;DHT22;14685;50.618;7.024;2023-07-09T00:16:44;25.80;99.90
27164;DHT22;14685;50.618;7.024;2023-07-09T00:19:21;25.80;99.90
27164;DHT22;14685;50.618;7.024;2023-07-09T00:21:51;25.80;99.90
27164;DHT22;14685;50.618;7.024;2023-07-09T00:24:22;25.80;99.90
27164;DHT22;14685;50.618;7.024;2023-07-09T00:26:50;25.70;99.90
27164;DHT22;14685;50.618;7.024;2023-07-09T00:31:45;25.70;99.90
27164;DHT22;14685;50.618;7.024;2023-07-09T00:34:16;25.60;99.90
27164;DHT22;14685;50.618;7.024;2023-07-09T00:36:44;25.60;99.90
27164;DHT22;14685;50.618;7.024;2023-07-09T00:39:22;25.50;99.90
27164;DHT22;14685;50.618;7.024;2023-07-09T00:41:50;25.60;99.90
27164;DHT22;14685;50.618;7.024;2023-07-09T00:44:31;25.60;99.90
27164;DHT22;14685;50.618;7.024;2023-07-09T00:47:12;25.60;99.90
27164;DHT22;14685;50.618;7.024;2023-07-09T00:49:45;25.60;99.90
27164;DHT22;14685;50.618;7.024;2023-07-09T00:52:35;25.60;99.90
27164;DHT22;14685;50.618;7.024;2023-07-09T00:55:11;25.60;99.90
27164;DHT22;14685;50.618;7.024;2023-07-09T00:57:42;25.60;99.90
27164;DHT22;14685;50.618;7.024;2023-07-09T01:00:13;25.40;99.90
27164;DHT22;14685;50.618;7.024;2023-07-09T01:02:45;25.40;99.90
27164;DHT22;14685;50.618;7.024;2023-07-09T01:05:16;25.20;99.90
27164;DHT22;14685;50.618;7.024;2023-07-09T01:07:44;25.20;99.90
27164;DHT22;14685;50.618;7.024;2023-07-09T01:10:16;25.20;99.90
27164;DHT22;14685;50.618;7.024;2023-07-09T01:12:44;25.20;99.90
27164;DHT22;14685;50.618;7.024;2023-07-09T01:15:12;25.10;99.90
27164;DHT22;14685;50.618;7.024;2023-07-09T01:17:42;25.00;99.90
27164;DHT22;14685;50.618;7.024;2023-07-09T01:20:17;25.00;99.90
27164;DHT22;14685;50.618;7.024;2023-07-09T01:22:51;24.90;99.90
27164;DHT22;14685;50.618;7.024;2023-07-09T01:25:23;24.90;99.90
27164;DHT22;14685;50.618;7.024;2023-07-09T01:27:50;24.90;99.90
27164;DHT22;14685;50.618;7.024;2023-07-09T01:30:36;24.90;99.90
27164;DHT22;14685;50.618;7.024;2023-07-09T01:33:04;24.80;99.90
27164;DHT22;14685;50.618;7.024;2023-07-09T01:35:35;24.80;99.90
27164;DHT22;14685;50.618;7.024;2023-07-09T01:38:02;24.80;99.90
27164;DHT22;14685;50.618;7.024;2023-07-09T01:40:34;24.70;99.90
27164;DHT22;14685;50.618;7.024;2023-07-09T01:43:05;24.70;99.90
27164;DHT22;14685;50.618;7.024;2023-07-09T01:45:35;24.60;99.90
27164;DHT22;14685;50.618;7.024;2023-07-09T01:48:04;24.60;99.90
27164;DHT22;14685;50.618;7.024;2023-07-09T01:50:31;24.60;99.90
27164;DHT22;14685;50.618;7.024;2023-07-09T01:53:01;24.60;99.90
27164;DHT22;14685;50.618;7.024;2023-07-09T01:55:29;24.60;99.90
27164;DHT22;14685;50.618;7.024;2023-07-09T01:57:56;24.50;99.90
27164;DHT22;14685;50.618;7.024;2023-07-09T02:00:26;24.60;99.90
27164;DHT22;14685;50.618;7.024;2023-07-09T02:02:53;24.60;99.90
27164;DHT22;14685;50.618;7.024;2023-07-09T02:05:21;24.60;99.90
27164;DHT22;14685;50.618;7.024;2023-07-09T02:07:51;24.60;99.90
27164;DHT22;14685;50.618;7.024;2023-07-09T02:10:18;24.60;99.90
27164;DHT22;14685;50.618;7.024;2023-07-09T02:12:47;24.60;99.90
27164;DHT22;14685;50.618;7.024;2023-07-09T02:15:16;24.60;99.90
27164;DHT22;14685;50.618;7.024;2023-07-09T02:17:43;24.50;99.90
27164;DHT22;14685;50.618;7.024;2023-07-09T02:20:14;24.50;99.90
27164;DHT22;14685;50.618;7.024;2023-07-09T02:22:44;24.50;99.90
27164;DHT22;14685;50.618;7.024;2023-07-09T02:25:14;24.50;99.90
27164;DHT22;14685;50.618;7.024;2023-07-09T02:27:42;24.50;99.90
27164;DHT22;14685;50.618;7.024;2023-07-09T02:30:09;24.40;99.90
27164;DHT22;14685;50.618;7.024;2023-07-09T02:32:37;24.40;99.90
27164;DHT22;14685;50.618;7.024;2023-07-09T02:35:04;24.30;99.90
27164;DHT22;14685;50.618;7.024;2023-07-09T02:37:31;24.30;99.90
27164;DHT22;14685;50.618;7.024;2023-07-09T02:40:00;24.30;99.90
27164;DHT22;14685;50.618;7.024;2023-07-09T02:42:27;24.30;99.90
27164;DHT22;14685;50.618;7.024;2023-07-09T02:44:54;24.30;99.90
27164;DHT22;14685;50.618;7.024;2023-07-09T02:47:24;24.10;99.90
27164;DHT22;14685;50.618;7.024;2023-07-09T02:49:51;24.30;99.90
27164;DHT22;14685;50.618;7.024;2023-07-09T02:52:18;24.20;99.90
27164;DHT22;14685;50.618;7.024;2023-07-09T02:54:45;24.20;99.90
27164;DHT22;14685;50.618;7.024;2023-07-09T02:57:12;24.20;99.90
27164;DHT22;14685;50.618;7.024;2023-07-09T02:59:39;24.30;99.90
27164;DHT22;14685;50.618;7.024;2023-07-09T03:02:07;24.20;99.90
27164;DHT22;14685;50.618;7.024;2023-07-09T03:04:34;24.20;99.90
27164;DHT22;14685;50.618;7.024;2023-07-09T03:07:02;24.20;99.90
27164;DHT22;14685;50.618;7.024;2023-07-09T03:09:30;24.20;99.90
27164;DHT22;14685;50.618;7.024;2023-07-09T03:11:57;24.20;99.90
27164;DHT22;14685;50.618;7.024;2023-07-09T03:14:24;24.20;99.90
27164;DHT22;14685;50.618;7.024;2023-07-09T03:16:51;24.10;99.90
27164;DHT22;14685;50.618;7.024;2023-07-09T03:19:18;24.20;99.90
27164;DHT22;14685;50.618;7.024;2023-07-09T03:21:45;24.10;99.90
27164;DHT22;14685;50.618;7.024;2023-07-09T03:24:13;24.10;99.90
27164;DHT22;14685;50.618;7.024;2023-07-09T03:26:46;24.10;99.90
27164;DHT22;14685;50.618;7.024;2023-07-09T03:29:15;24.10;99.90
27164;DHT22;14685;50.618;7.024;2023-07-09T03:31:42;24.10;99.90
27164;DHT22;14685;50.618;7.024;2023-07-09T03:34:09;24.10;99.90
27164;DHT22;14685;50.618;7.024;2023-07-09T03:36:37;24.00;99.90
27164;DHT22;14685;50.618;7.024;2023-07-09T03:39:05;24.00;99.90
27164;DHT22;14685;50.618;7.024;2023-07-09T03:41:32;24.00;99.90
27164;DHT22;14685;50.618;7.024;2023-07-09T03:43:59;23.90;99.90
27164;DHT22;14685;50.618;7.024;2023-07-09T03:46:26;23.90;99.90
27164;DHT22;14685;50.618;7.024;2023-07-09T03:48:53;23.90;99.90
27164;DHT22;14685;50.618;7.024;2023-07-09T03:51:21;23.90;99.90
27164;DHT22;14685;50.618;7.024;2023-07-09T03:53:48;23.90;99.90
27164;DHT22;14685;50.618;7.024;2023-07-09T03:56:16;23.90;99.90
27164;DHT22;14685;50.618;7.024;2023-07-09T03:58:43;23.90;99.90
27164;DHT22;14685;50.618;7.024;2023-07-09T04:01:11;23.90;99.90
27164;DHT22;14685;50.618;7.024;2023-07-09T04:03:42;23.80;99.90
27164;DHT22;14685;50.618;7.024;2023-07-09T04:06:10;23.80;99.90
27164;DHT22;14685;50.618;7.024;2023-07-09T04:08:37;23.80;99.90
27164;DHT22;14685;50.618;7.024;2023-07-09T04:11:04;23.80;99.90
27164;DHT22;14685;50.618;7.024;2023-07-09T04:13:31;23.80;99.90
27164;DHT22;14685;50.618;7.024;2023-07-09T04:15:58;23.80;99.90
27164;DHT22;14685;50.618;7.024;2023-07-09T04:18:25;23.80;99.90
27164;DHT22;14685;50.618;7.024;2023-07-09T04:20:54;23.70;99.90
27164;DHT22;14685;50.618;7.024;2023-07-09T04:23:21;23.80;99.90
27164;DHT22;14685;50.618;7.024;2023-07-09T04:25:48;23.70;99.90
27164;DHT22;14685;50.618;7.024;2023-07-09T04:28:15;23.60;99.90
27164;DHT22;14685;50.618;7.024;2023-07-09T04:30:51;23.70;99.90
27164;DHT22;14685;50.618;7.024;2023-07-09T04:33:19;23.60;99.90
27164;DHT22;14685;50.618;7.024;2023-07-09T04:35:48;23.60;99.90
27164;DHT22;14685;50.618;7.024;2023-07-09T04:38:17;23.60;99.90
27164;DHT22;14685;50.618;7.024;2023-07-09T04:40:46;23.60;99.90
27164;DHT22;14685;50.618;7.024;2023-07-09T04:43:13;23.50;99.90
27164;DHT22;14685;50.618;7.024;2023-07-09T04:45:40;23.60;99.90
27164;DHT22;14685;50.618;7.024;2023-07-09T04:48:07;23.50;99.90
27164;DHT22;14685;50.618;7.024;2023-07-09T04:50:34;23.60;99.90
27164;DHT22;14685;50.618;7.024;2023-07-09T04:53:01;23.50;99.90
27164;DHT22;14685;50.618;7.024;2023-07-09T04:55:28;23.60;99.90
27164;DHT22;14685;50.618;7.024;2023-07-09T04:57:55;23.70;99.90
27164;DHT22;14685;50.618;7.024;2023-07-09T05:00:22;23.60;99.90
27164;DHT22;14685;50.618;7.024;2023-07-09T05:02:52;23.70;99.90
27164;DHT22;14685;50.618;7.024;2023-07-09T05:05:19;23.70;99.90
27164;DHT22;14685;50.618;7.024;2023-07-09T05:07:46;23.70;99.90
27164;DHT22;14685;50.618;7.024;2023-07-09T05:10:13;23.80;99.90
27164;DHT22;14685;50.618;7.024;2023-07-09T05:12:51;23.80;99.90
27164;DHT22;14685;50.618;7.024;2023-07-09T05:15:20;23.80;99.90
27164;DHT22;14685;50.618;7.024;2023-07-09T05:17:47;23.90;99.90
27164;DHT22;14685;50.618;7.024;2023-07-09T05:20:16;24.00;99.90
27164;DHT22;14685;50.618;7.024;2023-07-09T05:22:43;24.00;99.90
27164;DHT22;14685;50.618;7.024;2023-07-09T05:25:11;24.00;99.90
27164;DHT22;14685;50.618;7.024;2023-07-09T05:27:42;24.10;99.90
27164;DHT22;14685;50.618;7.024;2023-07-09T05:30:09;24.10;99.90
27164;DHT22;14685;50.618;7.024;2023-07-09T05:32:37;24.20;99.90
27164;DHT22;14685;50.618;7.024;2023-07-09T05:35:04;24.20;99.90
27164;DHT22;14685;50.618;7.024;2023-07-09T05:37:32;24.30;99.90
27164;DHT22;14685;50.618;7.024;2023-07-09T05:39:59;24.40;99.90
27164;DHT22;14685;50.618;7.024;2023-07-09T05:42:28;24.50;99.90
27164;DHT22;14685;50.618;7.024;2023-07-09T05:44:55;24.60;99.90
27164;DHT22;14685;50.618;7.024;2023-07-09T05:47:21;24.70;99.90
27164;DHT22;14685;50.618;7.024;2023-07-09T05:49:48;24.80;99.90
27164;DHT22;14685;50.618;7.024;2023-07-09T05:52:18;24.90;99.90
27164;DHT22;14685;50.618;7.024;2023-07-09T05:54:48;24.90;99.90
27164;DHT22;14685;50.618;7.024;2023-07-09T05:57:15;25.00;99.90
27164;DHT22;14685;50.618;7.024;2023-07-09T05:59:43;25.10;99.90
27164;DHT22;14685;50.618;7.024;2023-07-09T06:02:11;25.20;99.90
27164;DHT22;14685;50.618;7.024;2023-07-09T06:04:39;25.30;99.90
27164;DHT22;14685;50.618;7.024;2023-07-09T06:07:08;25.40;99.90
27164;DHT22;14685;50.618;7.024;2023-07-09T06:09:36;25.50;99.90
27164;DHT22;14685;50.618;7.024;2023-07-09T06:12:04;25.50;99.90
27164;DHT22;14685;50.618;7.024;2023-07-09T06:14:32;25.70;99.90
27164;DHT22;14685;50.618;7.024;2023-07-09T06:17:03;25.70;99.90
27164;DHT22;14685;50.618;7.024;2023-07-09T06:19:31;25.80;99.90
27164;DHT22;14685;50.618;7.024;2023-07-09T06:21:58;25.90;99.90
27164;DHT22;14685;50.618;7.024;2023-07-09T06:24:25;26.00;99.90
27164;DHT22;14685;50.618;7.024;2023-07-09T06:26:52;26.10;99.90
27164;DHT22;14685;50.618;7.024;2023-07-09T06:29:19;26.20;99.90
27164;DHT22;14685;50.618;7.024;2023-07-09T06:31:46;26.30;99.90
27164;DHT22;14685;50.618;7.024;2023-07-09T06:34:13;26.40;99.90
27164;DHT22;14685;50.618;7.024;2023-07-09T06:39:10;26.60;99.90
27164;DHT22;14685;50.618;7.024;2023-07-09T06:41:38;26.60;99.90
27164;DHT22;14685;50.618;7.024;2023-07-09T06:44:07;26.70;99.90
27164;DHT22;14685;50.618;7.024;2023-07-09T06:46:34;26.80;99.90
27164;DHT22;14685;50.618;7.024;2023-07-09T06:49:02;26.90;99.90
27164;DHT22;14685;50.618;7.024;2023-07-09T06:51:30;27.20;99.90
27164;DHT22;14685;50.618;7.024;2023-07-09T06:53:57;27.20;99.90
27164;DHT22;14685;50.618;7.024;2023-07-09T06:56:26;27.20;99.90
27164;DHT22;14685;50.618;7.024;2023-07-09T06:58:52;27.40;99.90
27164;DHT22;14685;50.618;7.024;2023-07-09T07:01:20;27.60;99.90
27164;DHT22;14685;50.618;7.024;2023-07-09T07:03:47;27.70;99.90
27164;DHT22;14685;50.618;7.024;2023-07-09T07:06:17;27.70;99.90
27164;DHT22;14685;50.618;7.024;2023-07-09T07:08:44;27.90;99.90
27164;DHT22;14685;50.618;7.024;2023-07-09T07:11:11;28.00;99.90
27164;DHT22;14685;50.618;7.024;2023-07-09T07:13:39;28.20;99.90
27164;DHT22;14685;50.618;7.024;2023-07-09T07:16:09;28.30;99.90
27164;DHT22;14685;50.618;7.024;2023-07-09T07:18:38;28.40;99.90
27164;DHT22;14685;50.618;7.024;2023-07-09T07:21:05;28.60;99.90
27164;DHT22;14685;50.618;7.024;2023-07-09T07:23:33;28.70;99.90
27164;DHT22;14685;50.618;7.024;2023-07-09T07:26:00;28.90;99.90
27164;DHT22;14685;50.618;7.024;2023-07-09T07:28:27;29.00;99.90
27164;DHT22;14685;50.618;7.024;2023-07-09T07:31:02;29.20;99.90
27164;DHT22;14685;50.618;7.024;2023-07-09T07:33:29;29.30;99.90
27164;DHT22;14685;50.618;7.024;2023-07-09T07:38:26;29.70;99.90
27164;DHT22;14685;50.618;7.024;2023-07-09T07:40:53;29.70;99.90
27164;DHT22;14685;50.618;7.024;2023-07-09T07:43:20;29.90;99.90
27164;DHT22;14685;50.618;7.024;2023-07-09T07:45:47;30.00;99.90
27164;DHT22;14685;50.618;7.024;2023-07-09T07:48:15;30.10;99.90
27164;DHT22;14685;50.618;7.024;2023-07-09T07:50:46;30.20;99.90
27164;DHT22;14685;50.618;7.024;2023-07-09T07:53:15;30.40;99.90
27164;DHT22;14685;50.618;7.024;2023-07-09T07:58:13;30.50;99.90
27164;DHT22;14685;50.618;7.024;2023-07-09T08:00:41;30.70;99.90
27164;DHT22;14685;50.618;7.024;2023-07-09T08:03:08;30.90;99.90
27164;DHT22;14685;50.618;7.024;2023-07-09T08:05:35;31.10;99.90
27164;DHT22;14685;50.618;7.024;2023-07-09T08:08:02;31.30;99.90
27164;DHT22;14685;50.618;7.024;2023-07-09T08:12:56;31.70;99.90
27164;DHT22;14685;50.618;7.024;2023-07-09T08:15:24;31.80;99.90
27164;DHT22;14685;50.618;7.024;2023-07-09T08:17:51;32.00;99.90
27164;DHT22;14685;50.618;7.024;2023-07-09T08:20:19;32.20;99.90
27164;DHT22;14685;50.618;7.024;2023-07-09T08:22:45;32.40;99.90
27164;DHT22;14685;50.618;7.024;2023-07-09T08:25:13;32.50;99.90
27164;DHT22;14685;50.618;7.024;2023-07-09T08:27:44;32.80;99.90
27164;DHT22;14685;50.618;7.024;2023-07-09T08:30:12;32.80;99.90
27164;DHT22;14685;50.618;7.024;2023-07-09T08:35:07;33.10;99.90
27164;DHT22;14685;50.618;7.024;2023-07-09T08:37:40;33.20;99.90
27164;DHT22;14685;50.618;7.024;2023-07-09T08:40:14;33.30;99.90
27164;DHT22;14685;50.618;7.024;2023-07-09T08:42:46;33.40;99.90
27164;DHT22;14685;50.618;7.024;2023-07-09T08:45:43;33.70;98.90
27164;DHT22;14685;50.618;7.024;2023-07-09T08:48:30;33.70;99.00
27164;DHT22;14685;50.618;7.024;2023-07-09T08:51:10;33.80;97.10
27164;DHT22;14685;50.618;7.024;2023-07-09T08:53:49;34.00;96.60
27164;DHT22;14685;50.618;7.024;2023-07-09T08:56:16;34.10;96.10
27164;DHT22;14685;50.618;7.024;2023-07-09T08:58:44;34.30;95.20
27164;DHT22;14685;50.618;7.024;2023-07-09T09:01:54;34.30;95.80
27164;DHT22;14685;50.618;7.024;2023-07-09T09:04:27;34.50;95.40
27164;DHT22;14685;50.618;7.024;2023-07-09T09:09:54;34.80;95.20
27164;DHT22;14685;50.618;7.024;2023-07-09T09:12:28;34.90;94.70
27164;DHT22;14685;50.618;7.024;2023-07-09T09:15:01;35.10;94.60
27164;DHT22;14685;50.618;7.024;2023-07-09T09:17:34;35.20;93.70
27164;DHT22;14685;50.618;7.024;2023-07-09T09:20:31;35.30;93.10
27164;DHT22;14685;50.618;7.024;2023-07-09T09:23:13;35.40;93.30
27164;DHT22;14685;50.618;7.024;2023-07-09T09:26:02;35.40;91.30
27164;DHT22;14685;50.618;7.024;2023-07-09T09:28:39;35.50;91.00
27164;DHT22;14685;50.618;7.024;2023-07-09T09:31:10;35.60;92.00
27164;DHT22;14685;50.618;7.024;2023-07-09T09:33:45;35.70;92.50
27164;DHT22;14685;50.618;7.024;2023-07-09T09:36:23;35.80;91.00
27164;DHT22;14685;50.618;7.024;2023-07-09T09:38:52;35.80;91.60
27164;DHT22;14685;50.618;7.024;2023-07-09T09:41:23;35.90;90.80
27164;DHT22;14685;50.618;7.024;2023-07-09T09:43:53;36.00;90.50
27164;DHT22;14685;50.618;7.024;2023-07-09T09:46:26;36.00;90.30
27164;DHT22;14685;50.618;7.024;2023-07-09T09:48:59;36.10;90.80
27164;DHT22;14685;50.618;7.024;2023-07-09T09:51:26;36.20;90.90
27164;DHT22;14685;50.618;7.024;2023-07-09T09:53:58;36.20;88.90
27164;DHT22;14685;50.618;7.024;2023-07-09T09:56:36;36.30;87.50
27164;DHT22;14685;50.618;7.024;2023-07-09T09:59:04;36.40;90.80
27164;DHT22;14685;50.618;7.024;2023-07-09T10:01:37;36.50;88.60
27164;DHT22;14685;50.618;7.024;2023-07-09T10:04:06;36.60;89.40
27164;DHT22;14685;50.618;7.024;2023-07-09T10:06:38;36.60;87.80
27164;DHT22;14685;50.618;7.024;2023-07-09T10:11:48;36.60;85.90
27164;DHT22;14685;50.618;7.024;2023-07-09T10:14:31;36.60;86.70
27164;DHT22;14685;50.618;7.024;2023-07-09T10:19:58;36.50;83.40
27164;DHT22;14685;50.618;7.024;2023-07-09T10:22:43;36.60;87.20
27164;DHT22;14685;50.618;7.024;2023-07-09T10:25:40;36.60;84.90
27164;DHT22;14685;50.618;7.024;2023-07-09T10:36:27;36.80;77.50
27164;DHT22;14685;50.618;7.024;2023-07-09T10:39:14;36.80;80.80
27164;DHT22;14685;50.618;7.024;2023-07-09T10:41:43;36.90;81.60
27164;DHT22;14685;50.618;7.024;2023-07-09T10:44:19;36.90;81.20
27164;DHT22;14685;50.618;7.024;2023-07-09T10:46:50;37.00;80.70
27164;DHT22;14685;50.618;7.024;2023-07-09T10:49:19;37.00;79.80
27164;DHT22;14685;50.618;7.024;2023-07-09T10:51:54;37.00;79.50
27164;DHT22;14685;50.618;7.024;2023-07-09T10:57:33;37.10;79.70
27164;DHT22;14685;50.618;7.024;2023-07-09T11:00:07;37.20;81.60
27164;DHT22;14685;50.618;7.024;2023-07-09T11:02:39;37.20;77.80
27164;DHT22;14685;50.618;7.024;2023-07-09T11:05:07;37.10;77.40
27164;DHT22;14685;50.618;7.024;2023-07-09T11:07:44;37.00;78.30
27164;DHT22;14685;50.618;7.024;2023-07-09T11:10:27;37.00;81.30
27164;DHT22;14685;50.618;7.024;2023-07-09T11:15:43;37.00;81.10
27164;DHT22;14685;50.618;7.024;2023-07-09T11:18:24;36.90;81.60
27164;DHT22;14685;50.618;7.024;2023-07-09T11:21:16;36.80;77.60
27164;DHT22;14685;50.618;7.024;2023-07-09T11:26:26;36.60;80.50
27164;DHT22;14685;50.618;7.024;2023-07-09T11:29:16;36.70;81.70
27164;DHT22;14685;50.618;7.024;2023-07-09T11:31:45;36.80;81.90
27164;DHT22;14685;50.618;7.024;2023-07-09T11:36:59;36.80;82.30
27164;DHT22;14685;50.618;7.024;2023-07-09T11:39:31;36.90;82.20
27164;DHT22;14685;50.618;7.024;2023-07-09T11:42:28;36.90;82.30
27164;DHT22;14685;50.618;7.024;2023-07-09T11:45:08;36.80;78.60
27164;DHT22;14685;50.618;7.024;2023-07-09T11:47:57;36.90;80.80
27164;DHT22;14685;50.618;7.024;2023-07-09T11:50:44;36.90;81.70
27164;DHT22;14685;50.618;7.024;2023-07-09T11:53:34;36.90;82.60
27164;DHT22;14685;50.618;7.024;2023-07-09T11:56:03;36.90;80.00
27164;DHT22;14685;50.618;7.024;2023-07-09T11:58:34;36.90;83.80
27164;DHT22;14685;50.618;7.024;2023-07-09T12:01:02;36.80;81.70
27164;DHT22;14685;50.618;7.024;2023-07-09T12:03:33;36.80;82.30
27164;DHT22;14685;50.618;7.024;2023-07-09T12:06:03;36.70;79.30
27164;DHT22;14685;50.618;7.024;2023-07-09T12:08:36;36.70;78.80
27164;DHT22;14685;50.618;7.024;2023-07-09T12:11:04;36.60;78.90
27164;DHT22;14685;50.618;7.024;2023-07-09T12:13:39;36.50;78.40
27164;DHT22;14685;50.618;7.024;2023-07-09T12:16:25;36.40;80.10
27164;DHT22;14685;50.618;7.024;2023-07-09T12:18:53;36.40;82.50
27164;DHT22;14685;50.618;7.024;2023-07-09T12:21:23;36.40;82.90
27164;DHT22;14685;50.618;7.024;2023-07-09T12:23:50;36.40;79.40
27164;DHT22;14685;50.618;7.024;2023-07-09T12:26:19;36.40;80.10
27164;DHT22;14685;50.618;7.024;2023-07-09T12:28:54;36.50;79.40
27164;DHT22;14685;50.618;7.024;2023-07-09T12:31:31;36.50;80.50
27164;DHT22;14685;50.618;7.024;2023-07-09T12:33:58;36.50;79.70
27164;DHT22;14685;50.618;7.024;2023-07-09T12:36:28;36.50;79.60
27164;DHT22;14685;50.618;7.024;2023-07-09T12:39:03;36.50;78.90
27164;DHT22;14685;50.618;7.024;2023-07-09T12:41:44;36.50;78.50
27164;DHT22;14685;50.618;7.024;2023-07-09T12:44:20;36.40;75.70
27164;DHT22;14685;50.618;7.024;2023-07-09T12:46:48;36.40;77.70
27164;DHT22;14685;50.618;7.024;2023-07-09T12:49:30;36.50;77.70
27164;DHT22;14685;50.618;7.024;2023-07-09T12:52:02;36.60;75.00
27164;DHT22;14685;50.618;7.024;2023-07-09T12:54:30;36.70;74.40
27164;DHT22;14685;50.618;7.024;2023-07-09T12:56:59;36.70;75.30
27164;DHT22;14685;50.618;7.024;2023-07-09T12:59:38;36.60;76.80
27164;DHT22;14685;50.618;7.024;2023-07-09T13:02:20;36.70;76.70
27164;DHT22;14685;50.618;7.024;2023-07-09T13:04:49;36.70;75.20
27164;DHT22;14685;50.618;7.024;2023-07-09T13:07:38;36.60;74.50
27164;DHT22;14685;50.618;7.024;2023-07-09T13:10:17;36.60;73.30
27164;DHT22;14685;50.618;7.024;2023-07-09T13:12:46;36.60;73.90
27164;DHT22;14685;50.618;7.024;2023-07-09T13:15:27;36.50;75.20
27164;DHT22;14685;50.618;7.024;2023-07-09T13:18:00;36.50;77.10
27164;DHT22;14685;50.618;7.024;2023-07-09T13:20:31;36.50;77.90
27164;DHT22;14685;50.618;7.024;2023-07-09T13:22:59;36.40;77.80
27164;DHT22;14685;50.618;7.024;2023-07-09T13:25:26;36.40;79.60
27164;DHT22;14685;50.618;7.024;2023-07-09T13:28:23;36.40;80.60
27164;DHT22;14685;50.618;7.024;2023-07-09T13:30:58;36.30;81.30
27164;DHT22;14685;50.618;7.024;2023-07-09T13:33:26;36.30;82.10
27164;DHT22;14685;50.618;7.024;2023-07-09T13:35:54;36.10;78.50
27164;DHT22;14685;50.618;7.024;2023-07-09T13:38:22;36.10;79.50
27164;DHT22;14685;50.618;7.024;2023-07-09T13:40:54;36.10;81.10
27164;DHT22;14685;50.618;7.024;2023-07-09T13:43:33;36.10;82.10
27164;DHT22;14685;50.618;7.024;2023-07-09T13:46:03;36.00;83.40
27164;DHT22;14685;50.618;7.024;2023-07-09T13:48:32;35.90;79.90
27164;DHT22;14685;50.618;7.024;2023-07-09T13:50:59;35.90;81.30
27164;DHT22;14685;50.618;7.024;2023-07-09T13:53:31;35.80;80.10
27164;DHT22;14685;50.618;7.024;2023-07-09T13:55:59;35.80;82.40
27164;DHT22;14685;50.618;7.024;2023-07-09T13:58:27;35.80;84.00
27164;DHT22;14685;50.618;7.024;2023-07-09T14:00:58;35.80;84.10
27164;DHT22;14685;50.618;7.024;2023-07-09T14:03:33;35.80;84.00
27164;DHT22;14685;50.618;7.024;2023-07-09T14:06:01;35.70;83.50
27164;DHT22;14685;50.618;7.024;2023-07-09T14:08:28;35.70;84.60
27164;DHT22;14685;50.618;7.024;2023-07-09T14:10:56;35.60;84.40
27164;DHT22;14685;50.618;7.024;2023-07-09T14:13:24;35.50;84.80
27164;DHT22;14685;50.618;7.024;2023-07-09T14:15:52;35.50;85.80
27164;DHT22;14685;50.618;7.024;2023-07-09T14:18:21;35.40;86.20
27164;DHT22;14685;50.618;7.024;2023-07-09T14:20:50;35.30;86.30
27164;DHT22;14685;50.618;7.024;2023-07-09T14:23:19;35.30;86.40
27164;DHT22;14685;50.618;7.024;2023-07-09T14:25:47;35.20;86.60
27164;DHT22;14685;50.618;7.024;2023-07-09T14:28:20;35.10;87.40
27164;DHT22;14685;50.618;7.024;2023-07-09T14:30:49;35.10;87.30
27164;DHT22;14685;50.618;7.024;2023-07-09T14:33:21;35.00;82.50
27164;DHT22;14685;50.618;7.024;2023-07-09T14:35:49;34.90;83.40
27164;DHT22;14685;50.618;7.024;2023-07-09T14:38:20;34.70;86.30
27164;DHT22;14685;50.618;7.024;2023-07-09T14:40:50;34.50;87.70
27164;DHT22;14685;50.618;7.024;2023-07-09T14:43:17;34.10;90.10
27164;DHT22;14685;50.618;7.024;2023-07-09T14:45:44;33.90;90.70
27164;DHT22;14685;50.618;7.024;2023-07-09T14:48:13;33.70;90.90
27164;DHT22;14685;50.618;7.024;2023-07-09T14:50:43;33.50;91.70
27164;DHT22;14685;50.618;7.024;2023-07-09T14:53:17;33.40;92.30
27164;DHT22;14685;50.618;7.024;2023-07-09T14:55:46;33.20;92.00
27164;DHT22;14685;50.618;7.024;2023-07-09T14:58:19;33.10;92.90
27164;DHT22;14685;50.618;7.024;2023-07-09T15:00:47;33.00;92.90
27164;DHT22;14685;50.618;7.024;2023-07-09T15:03:23;32.90;96.00
27164;DHT22;14685;50.618;7.024;2023-07-09T15:05:53;32.80;97.80
27164;DHT22;14685;50.618;7.024;2023-07-09T15:08:24;32.70;97.70
27164;DHT22;14685;50.618;7.024;2023-07-09T15:10:53;32.50;97.70
27164;DHT22;14685;50.618;7.024;2023-07-09T15:13:30;32.40;97.00
27164;DHT22;14685;50.618;7.024;2023-07-09T15:16:00;32.30;97.40
27164;DHT22;14685;50.618;7.024;2023-07-09T15:18:28;32.20;97.20
27164;DHT22;14685;50.618;7.024;2023-07-09T15:20:57;32.10;97.00
27164;DHT22;14685;50.618;7.024;2023-07-09T15:23:25;32.10;96.70
27164;DHT22;14685;50.618;7.024;2023-07-09T15:25:58;31.90;97.30
27164;DHT22;14685;50.618;7.024;2023-07-09T15:28:25;31.90;97.20
27164;DHT22;14685;50.618;7.024;2023-07-09T15:30:52;31.90;97.30
27164;DHT22;14685;50.618;7.024;2023-07-09T15:33:20;31.90;96.90
27164;DHT22;14685;50.618;7.024;2023-07-09T15:35:48;31.80;97.70
27164;DHT22;14685;50.618;7.024;2023-07-09T15:38:24;31.80;98.10
27164;DHT22;14685;50.618;7.024;2023-07-09T15:40:52;31.80;98.50
27164;DHT22;14685;50.618;7.024;2023-07-09T15:43:19;31.70;98.90
27164;DHT22;14685;50.618;7.024;2023-07-09T15:45:48;31.70;99.90
27164;DHT22;14685;50.618;7.024;2023-07-09T15:48:32;31.60;99.90
27164;DHT22;14685;50.618;7.024;2023-07-09T15:51:00;31.60;99.90
27164;DHT22;14685;50.618;7.024;2023-07-09T15:53:29;31.50;99.90
27164;DHT22;14685;50.618;7.024;2023-07-09T15:56:03;31.40;99.90
27164;DHT22;14685;50.618;7.024;2023-07-09T15:58:37;31.30;99.90
27164;DHT22;14685;50.618;7.024;2023-07-09T16:01:06;31.20;99.90
27164;DHT22;14685;50.618;7.024;2023-07-09T16:03:34;31.10;99.90
27164;DHT22;14685;50.618;7.024;2023-07-09T16:06:02;30.90;99.90
27164;DHT22;14685;50.618;7.024;2023-07-09T16:08:30;30.70;99.90
27164;DHT22;14685;50.618;7.024;2023-07-09T16:10:57;30.40;99.90
27164;DHT22;14685;50.618;7.024;2023-07-09T16:13:26;30.20;99.90
27164;DHT22;14685;50.618;7.024;2023-07-09T16:15:54;29.80;99.90
27164;DHT22;14685;50.618;7.024;2023-07-09T16:18:22;29.60;99.90
27164;DHT22;14685;50.618;7.024;2023-07-09T16:20:50;29.40;99.90
27164;DHT22;14685;50.618;7.024;2023-07-09T16:23:20;29.30;99.90
27164;DHT22;14685;50.618;7.024;2023-07-09T16:25:50;29.00;99.90
27164;DHT22;14685;50.618;7.024;2023-07-09T16:28:19;28.80;99.90
27164;DHT22;14685;50.618;7.024;2023-07-09T16:30:49;28.60;99.90
27164;DHT22;14685;50.618;7.024;2023-07-09T16:33:21;28.50;99.90
27164;DHT22;14685;50.618;7.024;2023-07-09T16:35:51;28.30;99.90